sensor_id;sensor_type;location;lat;lon;timestamp;P1;durP1;ratioP1;P2;durP2;ratioP2
33824;SDS011;20127;48.962;8.342;2023-04-16T00:01:11;38.97;;;25.27;;
33824;SDS011;20127;48.962;8.342;2023-04-16T00:04:13;41.70;;;23.13;;
33824;SDS011;20127;48.962;8.342;2023-04-16T00:07:16;41.35;;;23.23;;
33824;SDS011;20127;48.962;8.342;2023-04-16T00:10:18;44.55;;;23.60;;
33824;SDS011;20127;48.962;8.342;2023-04-16T00:13:20;43.22;;;26.02;;
33824;SDS011;20127;48.962;8.342;2023-04-16T00:16:22;43.05;;;24.63;;
33824;SDS011;20127;48.962;8.342;2023-04-16T00:19:24;43.33;;;25.40;;
33824;SDS011;20127;48.962;8.342;2023-04-16T00:22:27;41.17;;;24.27;;
33824;SDS011;20127;48.962;8.342;2023-04-16T00:25:28;48.42;;;26.95;;
33824;SDS011;20127;48.962;8.342;2023-04-16T00:28:30;46.10;;;25.15;;
33824;SDS011;20127;48.962;8.342;2023-04-16T00:31:32;44.10;;;24.23;;
33824;SDS011;20127;48.962;8.342;2023-04-16T00:34:34;46.80;;;26.70;;
33824;SDS011;20127;48.962;8.342;2023-04-16T00:37:37;47.63;;;24.83;;
33824;SDS011;20127;48.962;8.342;2023-04-16T00:40:39;45.22;;;27.17;;
33824;SDS011;20127;48.962;8.342;2023-04-16T00:43:40;48.10;;;25.52;;
33824;SDS011;20127;48.962;8.342;2023-04-16T00:46:42;45.65;;;25.98;;
33824;SDS011;20127;48.962;8.342;2023-04-16T00:49:44;55.45;;;27.95;;
33824;SDS011;20127;48.962;8.342;2023-04-16T00:52:48;45.83;;;25.27;;
33824;SDS011;20127;48.962;8.342;2023-04-16T00:55:50;44.30;;;25.65;;
33824;SDS011;20127;48.962;8.342;2023-04-16T00:58:52;47.05;;;26.00;;
33824;SDS011;20127;48.962;8.342;2023-04-16T01:01:55;44.17;;;23.35;;
33824;SDS011;20127;48.962;8.342;2023-04-16T01:04:56;50.38;;;26.02;;
33824;SDS011;20127;48.962;8.342;2023-04-16T01:07:59;43.55;;;26.98;;
33824;SDS011;20127;48.962;8.342;2023-04-16T01:11:01;43.90;;;26.40;;
33824;SDS011;20127;48.962;8.342;2023-04-16T01:14:04;54.72;;;27.73;;
33824;SDS011;20127;48.962;8.342;2023-04-16T01:17:06;49.95;;;25.33;;
33824;SDS011;20127;48.962;8.342;2023-04-16T01:20:08;45.13;;;24.13;;
33824;SDS011;20127;48.962;8.342;2023-04-16T01:23:11;49.78;;;26.67;;
33824;SDS011;20127;48.962;8.342;2023-04-16T01:26:13;49.25;;;25.33;;
33824;SDS011;20127;48.962;8.342;2023-04-16T01:29:15;45.22;;;26.30;;
33824;SDS011;20127;48.962;8.342;2023-04-16T01:32:17;50.20;;;26.70;;
33824;SDS011;20127;48.962;8.342;2023-04-16T01:35:18;49.45;;;27.05;;
33824;SDS011;20127;48.962;8.342;2023-04-16T01:38:21;54.33;;;26.92;;
33824;SDS011;20127;48.962;8.342;2023-04-16T01:41:23;48.60;;;25.85;;
33824;SDS011;20127;48.962;8.342;2023-04-16T01:44:25;48.92;;;26.10;;
33824;SDS011;20127;48.962;8.342;2023-04-16T01:47:27;46.60;;;24.40;;
33824;SDS011;20127;48.962;8.342;2023-04-16T01:50:28;49.03;;;26.50;;
33824;SDS011;20127;48.962;8.342;2023-04-16T01:53:32;43.65;;;26.67;;
33824;SDS011;20127;48.962;8.342;2023-04-16T01:56:33;48.00;;;27.73;;
33824;SDS011;20127;48.962;8.342;2023-04-16T01:59:35;44.60;;;24.77;;
33824;SDS011;20127;48.962;8.342;2023-04-16T02:02:37;50.33;;;27.13;;
33824;SDS011;20127;48.962;8.342;2023-04-16T02:05:39;46.00;;;23.98;;
33824;SDS011;20127;48.962;8.342;2023-04-16T02:08:42;45.55;;;27.45;;
33824;SDS011;20127;48.962;8.342;2023-04-16T02:11:44;47.40;;;26.25;;
33824;SDS011;20127;48.962;8.342;2023-04-16T02:14:45;44.67;;;27.58;;
33824;SDS011;20127;48.962;8.342;2023-04-16T02:17:47;42.88;;;26.35;;
33824;SDS011;20127;48.962;8.342;2023-04-16T02:20:53;45.75;;;27.08;;
33824;SDS011;20127;48.962;8.342;2023-04-16T02:24:00;49.22;;;26.40;;
33824;SDS011;20127;48.962;8.342;2023-04-16T02:27:01;42.70;;;24.90;;
33824;SDS011;20127;48.962;8.342;2023-04-16T02:30:03;52.97;;;28.52;;
33824;SDS011;20127;48.962;8.342;2023-04-16T02:33:07;48.22;;;28.00;;
33824;SDS011;20127;48.962;8.342;2023-04-16T02:36:09;48.25;;;25.25;;
33824;SDS011;20127;48.962;8.342;2023-04-16T02:39:13;50.35;;;27.70;;
33824;SDS011;20127;48.962;8.342;2023-04-16T02:42:14;50.60;;;25.58;;
33824;SDS011;20127;48.962;8.342;2023-04-16T02:45:16;48.50;;;27.73;;
33824;SDS011;20127;48.962;8.342;2023-04-16T02:48:18;48.38;;;26.92;;
33824;SDS011;20127;48.962;8.342;2023-04-16T02:51:19;49.22;;;26.05;;
33824;SDS011;20127;48.962;8.342;2023-04-16T02:54:22;54.40;;;26.85;;
33824;SDS011;20127;48.962;8.342;2023-04-16T02:57:24;56.90;;;28.80;;
33824;SDS011;20127;48.962;8.342;2023-04-16T03:00:26;48.00;;;28.67;;
33824;SDS011;20127;48.962;8.342;2023-04-16T03:03:28;56.83;;;27.23;;
33824;SDS011;20127;48.962;8.342;2023-04-16T03:06:30;59.03;;;30.38;;
33824;SDS011;20127;48.962;8.342;2023-04-16T03:09:33;53.55;;;29.45;;
33824;SDS011;20127;48.962;8.342;2023-04-16T03:12:34;52.72;;;28.90;;
33824;SDS011;20127;48.962;8.342;2023-04-16T03:15:36;62.67;;;31.63;;
33824;SDS011;20127;48.962;8.342;2023-04-16T03:18:38;58.58;;;29.80;;
33824;SDS011;20127;48.962;8.342;2023-04-16T03:21:39;52.03;;;28.83;;
33824;SDS011;20127;48.962;8.342;2023-04-16T03:24:42;46.80;;;27.23;;
33824;SDS011;20127;48.962;8.342;2023-04-16T03:27:44;50.53;;;28.33;;
33824;SDS011;20127;48.962;8.342;2023-04-16T03:30:49;52.85;;;28.17;;
33824;SDS011;20127;48.962;8.342;2023-04-16T03:33:51;52.20;;;27.40;;
33824;SDS011;20127;48.962;8.342;2023-04-16T03:36:53;51.15;;;27.33;;
33824;SDS011;20127;48.962;8.342;2023-04-16T03:39:56;49.15;;;26.17;;
33824;SDS011;20127;48.962;8.342;2023-04-16T03:42:58;51.60;;;28.10;;
33824;SDS011;20127;48.962;8.342;2023-04-16T03:45:59;48.65;;;27.35;;
33824;SDS011;20127;48.962;8.342;2023-04-16T03:49:01;47.58;;;26.90;;
33824;SDS011;20127;48.962;8.342;2023-04-16T03:52:03;46.05;;;25.92;;
33824;SDS011;20127;48.962;8.342;2023-04-16T03:55:07;50.40;;;25.80;;
33824;SDS011;20127;48.962;8.342;2023-04-16T03:58:09;50.45;;;27.25;;
33824;SDS011;20127;48.962;8.342;2023-04-16T04:01:10;46.83;;;26.95;;
33824;SDS011;20127;48.962;8.342;2023-04-16T04:04:12;46.28;;;25.35;;
33824;SDS011;20127;48.962;8.342;2023-04-16T04:07:14;50.47;;;25.20;;
33824;SDS011;20127;48.962;8.342;2023-04-16T04:10:17;52.80;;;25.80;;
33824;SDS011;20127;48.962;8.342;2023-04-16T04:13:19;43.63;;;25.17;;
33824;SDS011;20127;48.962;8.342;2023-04-16T04:16:21;45.47;;;26.63;;
33824;SDS011;20127;48.962;8.342;2023-04-16T04:19:22;49.67;;;25.23;;
33824;SDS011;20127;48.962;8.342;2023-04-16T04:22:24;43.88;;;25.90;;
33824;SDS011;20127;48.962;8.342;2023-04-16T04:25:27;44.78;;;25.80;;
33824;SDS011;20127;48.962;8.342;2023-04-16T04:28:29;47.00;;;25.20;;
33824;SDS011;20127;48.962;8.342;2023-04-16T04:31:31;44.33;;;24.27;;
33824;SDS011;20127;48.962;8.342;2023-04-16T04:34:32;41.40;;;22.00;;
33824;SDS011;20127;48.962;8.342;2023-04-16T04:37:34;37.55;;;21.45;;
33824;SDS011;20127;48.962;8.342;2023-04-16T04:40:37;43.53;;;23.83;;
33824;SDS011;20127;48.962;8.342;2023-04-16T04:43:39;41.80;;;21.88;;
33824;SDS011;20127;48.962;8.342;2023-04-16T04:46:41;40.97;;;20.70;;
33824;SDS011;20127;48.962;8.342;2023-04-16T04:49:42;36.83;;;20.95;;
33824;SDS011;20127;48.962;8.342;2023-04-16T04:52:44;40.88;;;22.85;;
33824;SDS011;20127;48.962;8.342;2023-04-16T04:55:47;33.55;;;21.98;;
33824;SDS011;20127;48.962;8.342;2023-04-16T04:58:49;43.05;;;24.83;;
33824;SDS011;20127;48.962;8.342;2023-04-16T05:01:51;39.38;;;22.13;;
33824;SDS011;20127;48.962;8.342;2023-04-16T05:04:52;43.42;;;22.58;;
33824;SDS011;20127;48.962;8.342;2023-04-16T05:07:54;34.15;;;20.48;;
33824;SDS011;20127;48.962;8.342;2023-04-16T05:10:57;37.38;;;21.58;;
33824;SDS011;20127;48.962;8.342;2023-04-16T05:13:59;37.92;;;21.40;;
33824;SDS011;20127;48.962;8.342;2023-04-16T05:17:01;36.78;;;19.70;;
33824;SDS011;20127;48.962;8.342;2023-04-16T05:20:02;34.72;;;21.65;;
33824;SDS011;20127;48.962;8.342;2023-04-16T05:23:05;39.95;;;20.15;;
33824;SDS011;20127;48.962;8.342;2023-04-16T05:26:08;40.55;;;20.83;;
33824;SDS011;20127;48.962;8.342;2023-04-16T05:29:09;38.72;;;21.80;;
33824;SDS011;20127;48.962;8.342;2023-04-16T05:32:11;38.22;;;21.00;;
33824;SDS011;20127;48.962;8.342;2023-04-16T05:35:13;39.90;;;21.75;;
33824;SDS011;20127;48.962;8.342;2023-04-16T05:38:14;37.70;;;22.45;;
33824;SDS011;20127;48.962;8.342;2023-04-16T05:41:17;40.15;;;19.70;;
33824;SDS011;20127;48.962;8.342;2023-04-16T05:44:19;37.50;;;19.67;;
33824;SDS011;20127;48.962;8.342;2023-04-16T05:47:21;37.67;;;21.67;;
33824;SDS011;20127;48.962;8.342;2023-04-16T05:50:22;35.30;;;21.60;;
33824;SDS011;20127;48.962;8.342;2023-04-16T05:53:24;39.17;;;20.80;;
33824;SDS011;20127;48.962;8.342;2023-04-16T05:56:27;37.22;;;19.98;;
33824;SDS011;20127;48.962;8.342;2023-04-16T05:59:29;36.20;;;19.52;;
33824;SDS011;20127;48.962;8.342;2023-04-16T06:02:30;43.65;;;23.20;;
33824;SDS011;20127;48.962;8.342;2023-04-16T06:05:32;39.30;;;21.23;;
33824;SDS011;20127;48.962;8.342;2023-04-16T06:08:34;36.03;;;21.98;;
33824;SDS011;20127;48.962;8.342;2023-04-16T06:11:37;33.72;;;17.02;;
33824;SDS011;20127;48.962;8.342;2023-04-16T06:14:38;31.02;;;18.25;;
33824;SDS011;20127;48.962;8.342;2023-04-16T06:17:40;34.75;;;18.95;;
33824;SDS011;20127;48.962;8.342;2023-04-16T06:20:42;36.58;;;20.83;;
33824;SDS011;20127;48.962;8.342;2023-04-16T06:23:44;35.33;;;20.85;;
33824;SDS011;20127;48.962;8.342;2023-04-16T06:26:47;32.33;;;21.15;;
33824;SDS011;20127;48.962;8.342;2023-04-16T06:29:48;32.47;;;19.48;;
33824;SDS011;20127;48.962;8.342;2023-04-16T06:32:50;32.95;;;18.23;;
33824;SDS011;20127;48.962;8.342;2023-04-16T06:35:52;38.67;;;19.25;;
33824;SDS011;20127;48.962;8.342;2023-04-16T06:38:54;35.95;;;23.17;;
33824;SDS011;20127;48.962;8.342;2023-04-16T06:41:57;34.30;;;23.90;;
33824;SDS011;20127;48.962;8.342;2023-04-16T06:44:59;36.65;;;20.05;;
33824;SDS011;20127;48.962;8.342;2023-04-16T06:48:01;30.85;;;19.73;;
33824;SDS011;20127;48.962;8.342;2023-04-16T06:51:04;29.25;;;18.30;;
33824;SDS011;20127;48.962;8.342;2023-04-16T06:54:05;32.08;;;18.77;;
33824;SDS011;20127;48.962;8.342;2023-04-16T06:57:08;29.13;;;17.70;;
33824;SDS011;20127;48.962;8.342;2023-04-16T07:00:10;27.30;;;15.68;;
33824;SDS011;20127;48.962;8.342;2023-04-16T07:03:12;24.13;;;16.38;;
33824;SDS011;20127;48.962;8.342;2023-04-16T07:06:14;28.15;;;16.33;;
33824;SDS011;20127;48.962;8.342;2023-04-16T07:09:16;23.90;;;15.70;;
33824;SDS011;20127;48.962;8.342;2023-04-16T07:12:19;26.70;;;17.70;;
33824;SDS011;20127;48.962;8.342;2023-04-16T07:15:21;28.38;;;16.80;;
33824;SDS011;20127;48.962;8.342;2023-04-16T07:18:23;24.83;;;15.98;;
33824;SDS011;20127;48.962;8.342;2023-04-16T07:21:24;19.67;;;13.75;;
33824;SDS011;20127;48.962;8.342;2023-04-16T07:24:26;24.02;;;14.10;;
33824;SDS011;20127;48.962;8.342;2023-04-16T07:27:29;20.92;;;16.02;;
33824;SDS011;20127;48.962;8.342;2023-04-16T07:30:31;25.08;;;14.45;;
33824;SDS011;20127;48.962;8.342;2023-04-16T07:33:34;34.30;;;16.42;;
33824;SDS011;20127;48.962;8.342;2023-04-16T07:36:36;20.60;;;13.25;;
33824;SDS011;20127;48.962;8.342;2023-04-16T07:39:38;24.33;;;13.88;;
33824;SDS011;20127;48.962;8.342;2023-04-16T07:42:41;17.70;;;12.30;;
33824;SDS011;20127;48.962;8.342;2023-04-16T07:45:43;22.05;;;13.43;;
33824;SDS011;20127;48.962;8.342;2023-04-16T07:48:45;20.40;;;13.05;;
33824;SDS011;20127;48.962;8.342;2023-04-16T07:51:46;23.13;;;13.93;;
33824;SDS011;20127;48.962;8.342;2023-04-16T07:54:48;16.38;;;11.82;;
33824;SDS011;20127;48.962;8.342;2023-04-16T07:57:52;21.70;;;13.02;;
33824;SDS011;20127;48.962;8.342;2023-04-16T08:00:53;26.73;;;16.33;;
33824;SDS011;20127;48.962;8.342;2023-04-16T08:03:55;23.23;;;14.35;;
33824;SDS011;20127;48.962;8.342;2023-04-16T08:06:57;22.63;;;14.05;;
33824;SDS011;20127;48.962;8.342;2023-04-16T08:09:59;24.98;;;15.68;;
33824;SDS011;20127;48.962;8.342;2023-04-16T08:13:02;20.35;;;14.07;;
33824;SDS011;20127;48.962;8.342;2023-04-16T08:16:04;17.40;;;11.75;;
33824;SDS011;20127;48.962;8.342;2023-04-16T08:19:06;26.00;;;14.43;;
33824;SDS011;20127;48.962;8.342;2023-04-16T08:22:08;18.08;;;12.38;;
33824;SDS011;20127;48.962;8.342;2023-04-16T08:25:10;14.75;;;9.55;;
33824;SDS011;20127;48.962;8.342;2023-04-16T08:28:13;18.13;;;11.48;;
33824;SDS011;20127;48.962;8.342;2023-04-16T08:31:15;14.18;;;10.02;;
33824;SDS011;20127;48.962;8.342;2023-04-16T08:34:16;16.10;;;10.80;;
33824;SDS011;20127;48.962;8.342;2023-04-16T08:37:18;13.07;;;10.27;;
33824;SDS011;20127;48.962;8.342;2023-04-16T08:40:20;21.52;;;19.23;;
33824;SDS011;20127;48.962;8.342;2023-04-16T08:43:23;13.85;;;10.48;;
33824;SDS011;20127;48.962;8.342;2023-04-16T08:46:25;14.60;;;11.95;;
33824;SDS011;20127;48.962;8.342;2023-04-16T08:49:29;13.88;;;10.48;;
33824;SDS011;20127;48.962;8.342;2023-04-16T08:52:36;10.90;;;9.10;;
33824;SDS011;20127;48.962;8.342;2023-04-16T08:55:45;11.37;;;9.13;;
33824;SDS011;20127;48.962;8.342;2023-04-16T08:58:49;13.38;;;11.10;;
33824;SDS011;20127;48.962;8.342;2023-04-16T09:01:55;12.68;;;8.80;;
33824;SDS011;20127;48.962;8.342;2023-04-16T09:04:58;9.10;;;7.75;;
33824;SDS011;20127;48.962;8.342;2023-04-16T09:08:00;13.77;;;9.23;;
33824;SDS011;20127;48.962;8.342;2023-04-16T09:11:01;11.40;;;9.13;;
33824;SDS011;20127;48.962;8.342;2023-04-16T09:14:07;16.15;;;12.35;;
33824;SDS011;20127;48.962;8.342;2023-04-16T09:17:10;23.63;;;18.50;;
33824;SDS011;20127;48.962;8.342;2023-04-16T09:20:13;11.30;;;8.45;;
33824;SDS011;20127;48.962;8.342;2023-04-16T09:23:15;13.02;;;8.52;;
33824;SDS011;20127;48.962;8.342;2023-04-16T09:26:17;12.50;;;10.23;;
33824;SDS011;20127;48.962;8.342;2023-04-16T09:29:33;12.80;;;9.35;;
33824;SDS011;20127;48.962;8.342;2023-04-16T09:32:35;10.40;;;9.02;;
33824;SDS011;20127;48.962;8.342;2023-04-16T09:35:43;25.40;;;23.27;;
33824;SDS011;20127;48.962;8.342;2023-04-16T09:38:46;22.00;;;20.00;;
33824;SDS011;20127;48.962;8.342;2023-04-16T09:41:49;15.10;;;13.48;;
33824;SDS011;20127;48.962;8.342;2023-04-16T09:44:56;22.25;;;20.27;;
33824;SDS011;20127;48.962;8.342;2023-04-16T09:48:01;16.25;;;14.52;;
33824;SDS011;20127;48.962;8.342;2023-04-16T09:51:04;14.55;;;11.60;;
33824;SDS011;20127;48.962;8.342;2023-04-16T09:54:07;12.68;;;9.65;;
33824;SDS011;20127;48.962;8.342;2023-04-16T09:57:09;11.52;;;8.85;;
33824;SDS011;20127;48.962;8.342;2023-04-16T10:00:17;16.48;;;10.27;;
33824;SDS011;20127;48.962;8.342;2023-04-16T10:03:18;17.27;;;12.60;;
33824;SDS011;20127;48.962;8.342;2023-04-16T10:06:29;35.75;;;27.15;;
33824;SDS011;20127;48.962;8.342;2023-04-16T10:09:31;28.10;;;19.33;;
33824;SDS011;20127;48.962;8.342;2023-04-16T10:12:37;27.15;;;24.17;;
33824;SDS011;20127;48.962;8.342;2023-04-16T10:15:40;23.88;;;21.15;;
33824;SDS011;20127;48.962;8.342;2023-04-16T10:18:43;15.25;;;13.48;;
33824;SDS011;20127;48.962;8.342;2023-04-16T10:21:45;13.70;;;10.30;;
33824;SDS011;20127;48.962;8.342;2023-04-16T10:24:48;13.13;;;10.43;;
33824;SDS011;20127;48.962;8.342;2023-04-16T10:27:51;16.63;;;11.30;;
33824;SDS011;20127;48.962;8.342;2023-04-16T10:30:54;14.25;;;9.98;;
33824;SDS011;20127;48.962;8.342;2023-04-16T10:33:58;14.07;;;8.88;;
33824;SDS011;20127;48.962;8.342;2023-04-16T10:37:00;13.43;;;9.32;;
33824;SDS011;20127;48.962;8.342;2023-04-16T10:40:03;13.00;;;9.45;;
33824;SDS011;20127;48.962;8.342;2023-04-16T10:43:22;14.48;;;8.82;;
33824;SDS011;20127;48.962;8.342;2023-04-16T10:46:29;13.65;;;8.63;;
33824;SDS011;20127;48.962;8.342;2023-04-16T10:49:33;12.82;;;8.65;;
33824;SDS011;20127;48.962;8.342;2023-04-16T10:52:35;14.20;;;8.60;;
33824;SDS011;20127;48.962;8.342;2023-04-16T10:55:37;12.13;;;9.57;;
33824;SDS011;20127;48.962;8.342;2023-04-16T10:58:39;12.10;;;8.80;;
33824;SDS011;20127;48.962;8.342;2023-04-16T11:01:43;14.60;;;8.63;;
33824;SDS011;20127;48.962;8.342;2023-04-16T11:04:46;11.85;;;8.75;;
33824;SDS011;20127;48.962;8.342;2023-04-16T11:07:48;12.10;;;7.57;;
33824;SDS011;20127;48.962;8.342;2023-04-16T11:10:50;12.98;;;8.68;;
33824;SDS011;20127;48.962;8.342;2023-04-16T11:13:53;12.07;;;8.75;;
33824;SDS011;20127;48.962;8.342;2023-04-16T11:16:58;12.48;;;7.45;;
33824;SDS011;20127;48.962;8.342;2023-04-16T11:20:04;11.27;;;7.45;;
33824;SDS011;20127;48.962;8.342;2023-04-16T11:23:09;12.07;;;8.63;;
33824;SDS011;20127;48.962;8.342;2023-04-16T11:26:18;10.40;;;8.05;;
33824;SDS011;20127;48.962;8.342;2023-04-16T11:29:21;14.63;;;9.50;;
33824;SDS011;20127;48.962;8.342;2023-04-16T11:32:24;12.20;;;8.60;;
33824;SDS011;20127;48.962;8.342;2023-04-16T11:35:26;21.00;;;11.73;;
33824;SDS011;20127;48.962;8.342;2023-04-16T11:38:37;11.80;;;8.50;;
33824;SDS011;20127;48.962;8.342;2023-04-16T11:41:43;15.35;;;8.93;;
33824;SDS011;20127;48.962;8.342;2023-04-16T11:44:45;10.15;;;8.25;;
33824;SDS011;20127;48.962;8.342;2023-04-16T11:47:48;15.48;;;11.38;;
33824;SDS011;20127;48.962;8.342;2023-04-16T11:50:54;10.77;;;8.15;;
33824;SDS011;20127;48.962;8.342;2023-04-16T11:53:56;12.30;;;7.75;;
33824;SDS011;20127;48.962;8.342;2023-04-16T11:56:58;15.25;;;10.20;;
33824;SDS011;20127;48.962;8.342;2023-04-16T12:00:00;14.32;;;9.43;;
33824;SDS011;20127;48.962;8.342;2023-04-16T12:03:06;12.75;;;8.48;;
33824;SDS011;20127;48.962;8.342;2023-04-16T12:06:08;10.27;;;7.95;;
33824;SDS011;20127;48.962;8.342;2023-04-16T12:09:23;32.38;;;21.67;;
33824;SDS011;20127;48.962;8.342;2023-04-16T12:12:26;19.13;;;13.73;;
33824;SDS011;20127;48.962;8.342;2023-04-16T12:15:41;23.17;;;17.10;;
33824;SDS011;20127;48.962;8.342;2023-04-16T12:18:58;12.48;;;10.38;;
33824;SDS011;20127;48.962;8.342;2023-04-16T12:22:02;13.85;;;10.70;;
33824;SDS011;20127;48.962;8.342;2023-04-16T12:25:05;15.98;;;9.20;;
33824;SDS011;20127;48.962;8.342;2023-04-16T12:28:07;11.18;;;8.82;;
33824;SDS011;20127;48.962;8.342;2023-04-16T12:31:09;13.80;;;9.15;;
33824;SDS011;20127;48.962;8.342;2023-04-16T12:34:12;14.65;;;8.70;;
33824;SDS011;20127;48.962;8.342;2023-04-16T12:37:15;9.73;;;8.23;;
33824;SDS011;20127;48.962;8.342;2023-04-16T12:40:17;8.82;;;7.60;;
33824;SDS011;20127;48.962;8.342;2023-04-16T12:43:19;10.82;;;8.70;;
33824;SDS011;20127;48.962;8.342;2023-04-16T12:46:21;11.80;;;8.85;;
33824;SDS011;20127;48.962;8.342;2023-04-16T12:49:24;12.43;;;8.75;;
33824;SDS011;20127;48.962;8.342;2023-04-16T12:52:25;13.30;;;8.45;;
33824;SDS011;20127;48.962;8.342;2023-04-16T12:55:27;9.00;;;7.60;;
33824;SDS011;20127;48.962;8.342;2023-04-16T12:58:29;10.95;;;8.52;;
33824;SDS011;20127;48.962;8.342;2023-04-16T13:01:30;11.57;;;8.13;;
33824;SDS011;20127;48.962;8.342;2023-04-16T13:04:36;10.77;;;7.63;;
33824;SDS011;20127;48.962;8.342;2023-04-16T13:07:38;9.15;;;7.35;;
33824;SDS011;20127;48.962;8.342;2023-04-16T13:10:40;12.32;;;7.93;;
33824;SDS011;20127;48.962;8.342;2023-04-16T13:13:42;12.73;;;7.80;;
33824;SDS011;20127;48.962;8.342;2023-04-16T13:16:43;9.32;;;7.70;;
33824;SDS011;20127;48.962;8.342;2023-04-16T13:19:46;13.30;;;9.02;;
33824;SDS011;20127;48.962;8.342;2023-04-16T13:22:48;10.05;;;7.05;;
33824;SDS011;20127;48.962;8.342;2023-04-16T13:25:50;8.48;;;6.85;;
33824;SDS011;20127;48.962;8.342;2023-04-16T13:28:51;9.30;;;7.28;;
33824;SDS011;20127;48.962;8.342;2023-04-16T13:31:53;9.95;;;8.02;;
33824;SDS011;20127;48.962;8.342;2023-04-16T13:34:56;8.75;;;6.85;;
33824;SDS011;20127;48.962;8.342;2023-04-16T13:37:58;12.30;;;8.55;;
33824;SDS011;20127;48.962;8.342;2023-04-16T13:41:05;9.75;;;7.78;;
33824;SDS011;20127;48.962;8.342;2023-04-16T13:44:07;9.07;;;7.20;;
33824;SDS011;20127;48.962;8.342;2023-04-16T13:47:08;10.18;;;6.60;;
33824;SDS011;20127;48.962;8.342;2023-04-16T13:50:12;10.85;;;7.78;;
33824;SDS011;20127;48.962;8.342;2023-04-16T13:53:14;10.27;;;8.95;;
33824;SDS011;20127;48.962;8.342;2023-04-16T13:56:16;9.52;;;8.52;;
33824;SDS011;20127;48.962;8.342;2023-04-16T13:59:17;9.93;;;7.30;;
33824;SDS011;20127;48.962;8.342;2023-04-16T14:02:19;7.78;;;6.25;;
33824;SDS011;20127;48.962;8.342;2023-04-16T14:05:23;9.30;;;7.55;;
33824;SDS011;20127;48.962;8.342;2023-04-16T14:08:25;10.25;;;7.28;;
33824;SDS011;20127;48.962;8.342;2023-04-16T14:11:26;9.35;;;6.93;;
33824;SDS011;20127;48.962;8.342;2023-04-16T14:14:28;10.27;;;7.40;;
33824;SDS011;20127;48.962;8.342;2023-04-16T14:17:30;10.95;;;6.85;;
33824;SDS011;20127;48.962;8.342;2023-04-16T14:20:34;12.15;;;8.40;;
33824;SDS011;20127;48.962;8.342;2023-04-16T14:23:35;9.63;;;8.02;;
33824;SDS011;20127;48.962;8.342;2023-04-16T14:26:37;15.60;;;8.93;;
33824;SDS011;20127;48.962;8.342;2023-04-16T14:29:39;9.73;;;8.02;;
33824;SDS011;20127;48.962;8.342;2023-04-16T14:32:41;29.75;;;27.13;;
33824;SDS011;20127;48.962;8.342;2023-04-16T14:35:45;16.15;;;14.55;;
33824;SDS011;20127;48.962;8.342;2023-04-16T14:38:48;18.98;;;11.80;;
33824;SDS011;20127;48.962;8.342;2023-04-16T14:41:50;12.32;;;9.63;;
33824;SDS011;20127;48.962;8.342;2023-04-16T14:44:52;17.25;;;12.90;;
33824;SDS011;20127;48.962;8.342;2023-04-16T14:47:54;15.05;;;11.50;;
33824;SDS011;20127;48.962;8.342;2023-04-16T14:50:57;12.07;;;10.60;;
33824;SDS011;20127;48.962;8.342;2023-04-16T14:53:59;11.88;;;10.00;;
33824;SDS011;20127;48.962;8.342;2023-04-16T14:57:02;16.52;;;11.85;;
33824;SDS011;20127;48.962;8.342;2023-04-16T15:00:07;15.13;;;9.77;;
33824;SDS011;20127;48.962;8.342;2023-04-16T15:03:10;12.75;;;9.38;;
33824;SDS011;20127;48.962;8.342;2023-04-16T15:06:14;13.02;;;10.35;;
33824;SDS011;20127;48.962;8.342;2023-04-16T15:09:16;18.33;;;10.13;;
33824;SDS011;20127;48.962;8.342;2023-04-16T15:12:21;15.07;;;10.52;;
33824;SDS011;20127;48.962;8.342;2023-04-16T15:15:23;14.35;;;9.90;;
33824;SDS011;20127;48.962;8.342;2023-04-16T15:18:25;14.48;;;10.38;;
33824;SDS011;20127;48.962;8.342;2023-04-16T15:21:29;15.20;;;10.13;;
33824;SDS011;20127;48.962;8.342;2023-04-16T15:24:31;27.20;;;24.63;;
33824;SDS011;20127;48.962;8.342;2023-04-16T15:27:33;23.10;;;20.15;;
33824;SDS011;20127;48.962;8.342;2023-04-16T15:30:36;20.15;;;16.88;;
33824;SDS011;20127;48.962;8.342;2023-04-16T15:33:43;15.80;;;11.13;;
33824;SDS011;20127;48.962;8.342;2023-04-16T15:36:46;21.42;;;15.32;;
33824;SDS011;20127;48.962;8.342;2023-04-16T15:39:48;15.80;;;11.68;;
33824;SDS011;20127;48.962;8.342;2023-04-16T15:42:49;17.83;;;12.50;;
33824;SDS011;20127;48.962;8.342;2023-04-16T15:45:51;18.60;;;11.63;;
33824;SDS011;20127;48.962;8.342;2023-04-16T15:48:53;19.17;;;11.38;;
33824;SDS011;20127;48.962;8.342;2023-04-16T15:51:56;17.42;;;11.80;;
33824;SDS011;20127;48.962;8.342;2023-04-16T15:54:59;17.00;;;10.52;;
33824;SDS011;20127;48.962;8.342;2023-04-16T15:58:00;18.65;;;13.27;;
33824;SDS011;20127;48.962;8.342;2023-04-16T16:01:02;25.08;;;14.07;;
33824;SDS011;20127;48.962;8.342;2023-04-16T16:04:05;21.58;;;13.70;;
33824;SDS011;20127;48.962;8.342;2023-04-16T16:07:08;25.48;;;15.00;;
33824;SDS011;20127;48.962;8.342;2023-04-16T16:10:10;22.88;;;14.35;;
33824;SDS011;20127;48.962;8.342;2023-04-16T16:13:12;22.85;;;16.77;;
33824;SDS011;20127;48.962;8.342;2023-04-16T16:16:17;27.63;;;17.98;;
33824;SDS011;20127;48.962;8.342;2023-04-16T16:19:18;26.95;;;16.83;;
33824;SDS011;20127;48.962;8.342;2023-04-16T16:22:22;41.83;;;25.63;;
33824;SDS011;20127;48.962;8.342;2023-04-16T16:25:24;30.50;;;22.08;;
33824;SDS011;20127;48.962;8.342;2023-04-16T16:28:26;32.17;;;20.92;;
33824;SDS011;20127;48.962;8.342;2023-04-16T16:31:27;28.67;;;19.30;;
33824;SDS011;20127;48.962;8.342;2023-04-16T16:34:29;33.53;;;24.60;;
33824;SDS011;20127;48.962;8.342;2023-04-16T16:37:32;27.23;;;18.38;;
33824;SDS011;20127;48.962;8.342;2023-04-16T16:40:34;29.00;;;16.27;;
33824;SDS011;20127;48.962;8.342;2023-04-16T16:43:36;23.92;;;16.85;;
33824;SDS011;20127;48.962;8.342;2023-04-16T16:46:37;25.40;;;16.73;;
33824;SDS011;20127;48.962;8.342;2023-04-16T16:49:40;23.33;;;16.75;;
33824;SDS011;20127;48.962;8.342;2023-04-16T16:52:43;25.60;;;17.02;;
33824;SDS011;20127;48.962;8.342;2023-04-16T16:55:44;26.25;;;17.92;;
33824;SDS011;20127;48.962;8.342;2023-04-16T16:58:46;27.85;;;17.50;;
33824;SDS011;20127;48.962;8.342;2023-04-16T17:01:48;25.23;;;17.08;;
33824;SDS011;20127;48.962;8.342;2023-04-16T17:04:49;30.33;;;17.55;;
33824;SDS011;20127;48.962;8.342;2023-04-16T17:07:53;26.65;;;18.63;;
33824;SDS011;20127;48.962;8.342;2023-04-16T17:10:54;31.05;;;20.58;;
33824;SDS011;20127;48.962;8.342;2023-04-16T17:13:56;27.60;;;17.13;;
33824;SDS011;20127;48.962;8.342;2023-04-16T17:16:58;27.13;;;18.23;;
33824;SDS011;20127;48.962;8.342;2023-04-16T17:20:00;30.38;;;17.50;;
33824;SDS011;20127;48.962;8.342;2023-04-16T17:23:08;33.10;;;21.33;;
33824;SDS011;20127;48.962;8.342;2023-04-16T17:26:10;32.90;;;17.02;;
33824;SDS011;20127;48.962;8.342;2023-04-16T17:29:11;30.55;;;17.35;;
33824;SDS011;20127;48.962;8.342;2023-04-16T17:32:13;36.80;;;20.85;;
33824;SDS011;20127;48.962;8.342;2023-04-16T17:35:15;36.08;;;19.75;;
33824;SDS011;20127;48.962;8.342;2023-04-16T17:38:18;37.33;;;22.85;;
33824;SDS011;20127;48.962;8.342;2023-04-16T17:41:20;38.58;;;22.25;;
33824;SDS011;20127;48.962;8.342;2023-04-16T17:44:21;30.63;;;17.83;;
33824;SDS011;20127;48.962;8.342;2023-04-16T17:47:24;35.22;;;19.50;;
33824;SDS011;20127;48.962;8.342;2023-04-16T17:50:26;40.78;;;24.25;;
33824;SDS011;20127;48.962;8.342;2023-04-16T17:53:29;32.45;;;21.23;;